Teasingmachine — 9HB5724 — position and weather

sailwx.info

Track history (hours):
 
Tides and Currents Weather Stations Pressure Air Temp Water Temp Dewpoint Dewpoint Depression Visibility Wind Speed Wind Dir Waves Ship Positions

Teasingmachine

Last reported at 2018-May-09 18:30 UTC. Time now 2018-Jun-17 23:41 UTC.
Position N 17°15' W 061°43'.
Warning: this ship's position is 39 days out of date.

Type: Sailing vessel. MMSI: 215000936.

Date/timePositionNaut miles runAvg speedWind from/ knotsBaromVisibWave heightAir tempDewpointWater temp
2018-May-09 18:30N 17°15' W 061°43'612.0
2018-May-09 17:59N 17°09' W 061°40'8 9.1
2018-May-09 17:08N 17°01' W 061°41'1 6.1
2018-May-09 16:58N 17°01' W 061°42'3 6.9
2018-May-09 16:28N 16°60' W 061°45'0 0.7
2018-May-09 16:00N 16°60' W 061°46'0 0.8
2018-May-09 15:28N 17°00' W 061°46'1 1.6
2018-May-09 14:59N 17°00' W 061°47'1 0.0
2018-May-08 22:06N 17°01' W 061°46'0 0.0
2018-May-08 21:41N 17°01' W 061°46'0 0.0
2018-May-08 21:29N 17°01' W 061°46'0 0.0
2018-May-08 20:50N 17°01' W 061°46'0 0.0
2018-May-08 20:25N 17°01' W 061°46'0 0.0
2018-May-08 19:34N 17°01' W 061°46'0 0.0
2018-May-08 19:13N 17°01' W 061°46'0 0.0
2018-May-08 18:58N 17°01' W 061°46'0 0.0
2018-May-08 18:13N 17°01' W 061°46'1 2.6
2018-May-08 17:57N 17°00' W 061°47'3 7.3
2018-May-08 17:30N 16°58' W 061°49'0 0.9
2018-May-08 16:59N 16°57' W 061°49'3 6.1
2018-May-08 16:25N 17°00' W 061°47'1 1.1
2018-May-08 15:47N 17°01' W 061°46'0 0.0
2018-May-08 15:20N 17°01' W 061°46'0 0.0
2018-May-08 14:53N 17°01' W 061°46'0 0.0
2018-May-08 14:26N 17°01' W 061°46'0 0.0
2018-May-07 21:28N 17°01' W 061°46'0 0.0
2018-May-07 20:52N 17°01' W 061°46'0 0.0
2018-May-06 20:47N 17°01' W 061°46'0 0.0
2018-May-06 20:20N 17°01' W 061°46'0 0.0
2018-May-06 19:32N 17°01' W 061°46'0 0.0
2018-May-06 19:23N 17°01' W 061°46'0 0.0
2018-May-06 18:44N 17°01' W 061°46'0 0.0
2018-May-06 15:51N 17°01' W 061°46'0 0.0
2018-May-06 15:24N 17°01' W 061°46'0 0.0
2018-May-05 21:13N 17°01' W 061°46'0 0.0
2018-May-05 20:43N 17°01' W 061°46'0 0.0
2018-May-05 17:13N 17°01' W 061°46'0 0.0
2018-May-05 16:58N 17°01' W 061°46'0 0.0
2018-May-05 15:51N 17°01' W 061°46'0 0.0
2018-May-05 14:27N 17°01' W 061°46'0 0.0
2018-May-05 14:00N 17°01' W 061°46'  
Track history (hours):
 
Tides and Currents Weather Stations Pressure Air Temp Water Temp Dewpoint Dewpoint Depression Visibility Wind Speed Wind Dir Waves Ship Positions

Teasingmachine

Last reported at 2018-May-09 18:30 UTC. Time now 2018-Jun-17 23:41 UTC.
Position N 17°15' W 061°43'.
Warning: this ship's position is 39 days out of date.

Type: Sailing vessel. MMSI: 215000936.

Date/timePositionNaut miles runAvg speedWind from/ knotsBaromVisibWave heightAir tempDewpointWater temp
2018-May-09 18:30N 17°15' W 061°43'612.0
2018-May-09 17:59N 17°09' W 061°40'8 9.1
2018-May-09 17:08N 17°01' W 061°41'1 6.1
2018-May-09 16:58N 17°01' W 061°42'3 6.9
2018-May-09 16:28N 16°60' W 061°45'0 0.7
2018-May-09 16:00N 16°60' W 061°46'0 0.8
2018-May-09 15:28N 17°00' W 061°46'1 1.6
2018-May-09 14:59N 17°00' W 061°47'1 0.0
2018-May-08 22:06N 17°01' W 061°46'0 0.0
2018-May-08 21:41N 17°01' W 061°46'0 0.0
2018-May-08 21:29N 17°01' W 061°46'0 0.0
2018-May-08 20:50N 17°01' W 061°46'0 0.0
2018-May-08 20:25N 17°01' W 061°46'0 0.0
2018-May-08 19:34N 17°01' W 061°46'0 0.0
2018-May-08 19:13N 17°01' W 061°46'0 0.0
2018-May-08 18:58N 17°01' W 061°46'0 0.0
2018-May-08 18:13N 17°01' W 061°46'1 2.6
2018-May-08 17:57N 17°00' W 061°47'3 7.3
2018-May-08 17:30N 16°58' W 061°49'0 0.9
2018-May-08 16:59N 16°57' W 061°49'3 6.1
2018-May-08 16:25N 17°00' W 061°47'1 1.1
2018-May-08 15:47N 17°01' W 061°46'0 0.0
2018-May-08 15:20N 17°01' W 061°46'0 0.0
2018-May-08 14:53N 17°01' W 061°46'0 0.0
2018-May-08 14:26N 17°01' W 061°46'0 0.0
2018-May-07 21:28N 17°01' W 061°46'0 0.0
2018-May-07 20:52N 17°01' W 061°46'0 0.0
2018-May-06 20:47N 17°01' W 061°46'0 0.0
2018-May-06 20:20N 17°01' W 061°46'0 0.0
2018-May-06 19:32N 17°01' W 061°46'0 0.0
2018-May-06 19:23N 17°01' W 061°46'0 0.0
2018-May-06 18:44N 17°01' W 061°46'0 0.0
2018-May-06 15:51N 17°01' W 061°46'0 0.0
2018-May-06 15:24N 17°01' W 061°46'0 0.0
2018-May-05 21:13N 17°01' W 061°46'0 0.0
2018-May-05 20:43N 17°01' W 061°46'0 0.0
2018-May-05 17:13N 17°01' W 061°46'0 0.0
2018-May-05 16:58N 17°01' W 061°46'0 0.0
2018-May-05 15:51N 17°01' W 061°46'0 0.0
2018-May-05 14:27N 17°01' W 061°46'0 0.0
2018-May-05 14:00N 17°01' W 061°46'  

Dump ship's entire track history